Time;durP1;ratioP1;P1;durP2;ratioP2;P2;SDS_P1;SDS_P2;PMS_P1;PMS_P2;Temp;Humidity;BMP_temperature;BMP_pressure;BME280_temperature;BME280_humidity;BME280_pressure;Samples;Min_cycle;Max_cycle;Signal;HPM_P1;HPM_P2
2022/03/01 00:01:55;;;;;;;49.55;30.00;;;;;;;;;;5026713;28;20435;-79
2022/03/01 00:04:21;;;;;;;45.72;28.40;;;;;;;;;;5031266;28;20422;-80
2022/03/01 00:06:47;;;;;;;52.22;29.45;;;;;;;;;;5032495;28;20428;-79
2022/03/01 00:09:14;;;;;;;47.30;27.80;;;;;;;;;;5033583;28;20423;-79
2022/03/01 00:11:41;;;;;;;53.80;30.40;;;;;;;;;;5029641;28;20427;-79
2022/03/01 00:14:08;;;;;;;47.92;28.05;;;;;;;;;;5046677;23;20439;-83
2022/03/01 00:16:34;;;;;;;48.20;30.00;;;;;;;;;;5024966;28;20431;-84
2022/03/01 00:19:00;;;;;;;46.90;29.20;;;;;;;;;;5026327;28;20821;-84
2022/03/01 00:21:28;;;;;;;48.78;28.83;;;;;;;;;;5027745;28;20446;-83
2022/03/01 00:23:54;;;;;;;49.20;28.80;;;;;;;;;;5027414;28;20500;-83
2022/03/01 00:26:21;;;;;;;48.22;28.42;;;;;;;;;;5027812;28;20477;-83
2022/03/01 00:28:48;;;;;;;47.97;28.70;;;;;;;;;;5027762;28;20461;-83
2022/03/01 00:31:15;;;;;;;46.50;28.60;;;;;;;;;;5024297;28;20440;-83
2022/03/01 00:33:41;;;;;;;47.80;28.25;;;;;;;;;;5029691;28;20832;-83
2022/03/01 00:36:07;;;;;;;49.38;28.38;;;;;;;;;;5028600;28;20483;-84
2022/03/01 00:38:34;;;;;;;47.75;29.70;;;;;;;;;;5026474;28;20472;-84
2022/03/01 00:41:00;;;;;;;48.30;28.05;;;;;;;;;;5027235;28;20428;-84
2022/03/01 00:43:27;;;;;;;47.92;29.20;;;;;;;;;;5025979;28;20437;-84
2022/03/01 00:45:54;;;;;;;43.77;27.40;;;;;;;;;;5025418;28;20435;-84
2022/03/01 00:48:21;;;;;;;46.05;27.70;;;;;;;;;;5026454;28;20421;-83
2022/03/01 00:50:48;;;;;;;47.30;28.90;;;;;;;;;;5024963;28;20464;-84
2022/03/01 00:53:14;;;;;;;48.13;28.95;;;;;;;;;;5024168;28;20431;-84
2022/03/01 00:55:40;;;;;;;50.05;28.65;;;;;;;;;;5024113;28;20435;-84
2022/03/01 00:58:07;;;;;;;43.42;27.92;;;;;;;;;;5025911;28;21001;-84
2022/03/01 01:00:34;;;;;;;49.90;28.55;;;;;;;;;;5022007;28;20434;-84
2022/03/01 01:03:01;;;;;;;45.92;27.25;;;;;;;;;;5027658;28;20461;-84
2022/03/01 01:05:28;;;;;;;50.85;28.67;;;;;;;;;;5023828;28;20435;-84
2022/03/01 01:07:54;;;;;;;50.47;30.10;;;;;;;;;;5028209;28;20441;-84
2022/03/01 01:10:21;;;;;;;52.95;30.00;;;;;;;;;;5022684;28;21249;-84
2022/03/01 01:12:47;;;;;;;56.13;31.00;;;;;;;;;;5026593;28;20421;-84
2022/03/01 01:15:15;;;;;;;54.13;30.03;;;;;;;;;;5023889;28;20937;-84
2022/03/01 01:17:41;;;;;;;50.38;30.08;;;;;;;;;;5027908;28;20468;-84
2022/03/01 01:20:10;;;;;;;52.20;30.40;;;;;;;;;;5023678;28;20433;-84
2022/03/01 01:22:42;;;;;;;53.00;29.92;;;;;;;;;;5027863;28;20415;-84
2022/03/01 01:25:10;;;;;;;46.03;28.40;;;;;;;;;;5028430;28;20798;-84
2022/03/01 01:27:36;;;;;;;47.60;28.40;;;;;;;;;;5028772;28;20558;-83
2022/03/01 01:30:03;;;;;;;49.65;28.40;;;;;;;;;;5027635;28;20431;-84
2022/03/01 01:32:29;;;;;;;47.58;29.38;;;;;;;;;;5031688;28;20484;-84
2022/03/01 01:34:55;;;;;;;51.42;30.60;;;;;;;;;;5029771;28;20437;-84
2022/03/01 01:37:23;;;;;;;50.83;29.85;;;;;;;;;;5028140;28;20512;-84
2022/03/01 01:39:49;;;;;;;49.60;29.45;;;;;;;;;;5027500;28;20429;-84
2022/03/01 01:42:16;;;;;;;51.00;30.27;;;;;;;;;;5028465;28;20440;-84
2022/03/01 01:44:43;;;;;;;51.72;30.80;;;;;;;;;;5029745;28;20413;-83
2022/03/01 01:47:09;;;;;;;47.90;29.55;;;;;;;;;;5029431;28;20433;-84
2022/03/01 01:49:35;;;;;;;48.25;28.35;;;;;;;;;;5026198;28;23085;-84
2022/03/01 01:52:02;;;;;;;45.65;29.42;;;;;;;;;;5029444;28;20435;-84
2022/03/01 01:54:30;;;;;;;48.67;28.67;;;;;;;;;;5027878;28;20431;-84
2022/03/01 01:56:56;;;;;;;51.35;30.42;;;;;;;;;;5027069;28;20453;-83
2022/03/01 01:59:22;;;;;;;47.10;27.10;;;;;;;;;;5026374;28;20423;-82
2022/03/01 02:01:48;;;;;;;46.75;28.40;;;;;;;;;;5028624;28;20789;-84
2022/03/01 02:04:15;;;;;;;49.17;28.60;;;;;;;;;;5029431;28;20447;-84
2022/03/01 02:06:49;;;;;;;50.22;29.67;;;;;;;;;;5027249;28;21023;-84
2022/03/01 02:09:16;;;;;;;46.80;28.85;;;;;;;;;;5028834;28;20450;-84
2022/03/01 02:11:43;;;;;;;49.88;28.02;;;;;;;;;;5025548;28;20964;-83
2022/03/01 02:14:09;;;;;;;43.95;28.20;;;;;;;;;;5025491;28;20747;-84
2022/03/01 02:16:36;;;;;;;46.88;28.52;;;;;;;;;;5025319;28;20434;-84
2022/03/01 02:19:04;;;;;;;49.17;28.33;;;;;;;;;;5025105;28;20456;-84
2022/03/01 02:21:31;;;;;;;50.60;28.98;;;;;;;;;;5025778;28;20431;-82
2022/03/01 02:23:58;;;;;;;45.25;28.58;;;;;;;;;;5029747;28;20426;-83
2022/03/01 02:26:24;;;;;;;45.85;27.45;;;;;;;;;;5025235;28;20415;-84
2022/03/01 02:28:50;;;;;;;45.38;28.33;;;;;;;;;;5027057;28;20464;-84
2022/03/01 02:31:16;;;;;;;54.30;31.50;;;;;;;;;;5028606;28;20439;-84
2022/03/01 02:33:44;;;;;;;46.75;28.73;;;;;;;;;;5026138;28;20441;-83
2022/03/01 02:36:10;;;;;;;44.83;28.15;;;;;;;;;;5025137;28;20437;-84
2022/03/01 02:38:38;;;;;;;46.80;28.17;;;;;;;;;;5026649;28;20449;-84
2022/03/01 02:41:04;;;;;;;48.08;28.65;;;;;;;;;;5025906;28;20430;-84
2022/03/01 02:43:30;;;;;;;44.90;26.50;;;;;;;;;;5026729;28;20436;-84
2022/03/01 02:45:56;;;;;;;47.80;28.55;;;;;;;;;;5026761;28;20419;-84
2022/03/01 02:48:23;;;;;;;46.60;28.10;;;;;;;;;;5027726;28;20791;-84
2022/03/01 02:50:49;;;;;;;48.65;28.45;;;;;;;;;;5027641;28;20427;-84
2022/03/01 02:53:16;;;;;;;46.55;27.92;;;;;;;;;;5027102;28;20462;-84
2022/03/01 02:55:43;;;;;;;47.10;27.63;;;;;;;;;;5025723;28;20421;-83
2022/03/01 02:58:09;;;;;;;49.25;27.42;;;;;;;;;;5024997;28;20439;-82
2022/03/01 03:00:36;;;;;;;45.57;28.17;;;;;;;;;;5025727;28;20946;-85
2022/03/01 03:03:02;;;;;;;48.38;29.00;;;;;;;;;;5029607;28;20794;-84
2022/03/01 03:05:28;;;;;;;46.05;27.45;;;;;;;;;;5027757;28;20419;-84
2022/03/01 03:07:55;;;;;;;49.50;27.92;;;;;;;;;;5026542;28;20426;-83
2022/03/01 03:10:21;;;;;;;51.53;28.17;;;;;;;;;;5025606;28;20427;-84
2022/03/01 03:12:49;;;;;;;48.42;27.60;;;;;;;;;;5026596;28;20423;-84
2022/03/01 03:15:15;;;;;;;46.65;27.08;;;;;;;;;;5025334;28;21010;-84
2022/03/01 03:17:41;;;;;;;42.85;25.80;;;;;;;;;;5027615;28;20447;-84
2022/03/01 03:20:09;;;;;;;51.10;26.33;;;;;;;;;;5025816;28;20424;-84
2022/03/01 03:22:36;;;;;;;43.88;27.15;;;;;;;;;;5029763;28;20423;-85
2022/03/01 03:25:02;;;;;;;45.03;26.85;;;;;;;;;;5029483;28;20986;-84
2022/03/01 03:27:28;;;;;;;46.63;26.65;;;;;;;;;;5027842;28;20426;-84
2022/03/01 03:29:56;;;;;;;46.72;26.83;;;;;;;;;;5024866;28;20429;-84
2022/03/01 03:32:22;;;;;;;47.00;26.70;;;;;;;;;;5027637;28;20426;-84
2022/03/01 03:34:48;;;;;;;46.30;27.88;;;;;;;;;;5028161;28;20436;-84
2022/03/01 03:37:15;;;;;;;45.58;27.73;;;;;;;;;;5024624;28;20916;-84
2022/03/01 03:39:41;;;;;;;42.97;27.27;;;;;;;;;;5023204;28;20928;-83
2022/03/01 03:42:07;;;;;;;47.13;26.15;;;;;;;;;;5024083;28;20446;-84
2022/03/01 03:44:34;;;;;;;46.42;27.60;;;;;;;;;;5022733;28;20445;-84
2022/03/01 03:47:01;;;;;;;48.40;26.90;;;;;;;;;;5025819;28;20522;-84
2022/03/01 03:49:28;;;;;;;41.03;25.73;;;;;;;;;;5023608;28;20782;-84
2022/03/01 03:51:55;;;;;;;47.67;27.10;;;;;;;;;;5027171;28;20434;-84
2022/03/01 03:54:21;;;;;;;44.22;26.17;;;;;;;;;;5026754;28;20428;-84
2022/03/01 03:56:47;;;;;;;46.70;26.27;;;;;;;;;;5026268;28;20434;-84
2022/03/01 03:59:14;;;;;;;42.67;26.02;;;;;;;;;;5023114;28;20428;-83
2022/03/01 04:01:40;;;;;;;46.25;27.10;;;;;;;;;;5024927;28;20445;-84
2022/03/01 04:04:08;;;;;;;42.45;25.23;;;;;;;;;;5026242;28;20547;-84
2022/03/01 04:06:34;;;;;;;43.88;25.35;;;;;;;;;;5023706;28;20425;-84
2022/03/01 04:09:00;;;;;;;47.00;26.33;;;;;;;;;;5026937;28;20421;-84
2022/03/01 04:11:27;;;;;;;51.40;27.40;;;;;;;;;;5023169;28;20477;-84
2022/03/01 04:13:53;;;;;;;44.97;27.10;;;;;;;;;;5025555;28;20441;-84
2022/03/01 04:16:19;;;;;;;49.20;26.83;;;;;;;;;;5023425;28;20437;-83
2022/03/01 04:18:46;;;;;;;47.53;26.63;;;;;;;;;;5023595;28;20419;-83
2022/03/01 04:21:14;;;;;;;42.60;26.30;;;;;;;;;;5024155;28;20431;-83
2022/03/01 04:23:40;;;;;;;46.60;26.58;;;;;;;;;;5024365;28;20429;-83
2022/03/01 04:26:07;;;;;;;46.15;26.33;;;;;;;;;;5022662;28;20425;-83
2022/03/01 04:28:33;;;;;;;43.53;26.27;;;;;;;;;;5022833;28;20440;-84
2022/03/01 04:31:00;;;;;;;43.28;25.20;;;;;;;;;;5023812;28;20434;-83
2022/03/01 04:33:26;;;;;;;45.10;25.70;;;;;;;;;;5024080;28;20529;-83
2022/03/01 04:35:52;;;;;;;41.60;25.55;;;;;;;;;;5024608;28;20487;-83
2022/03/01 04:38:20;;;;;;;45.65;26.20;;;;;;;;;;5022431;28;21341;-83
2022/03/01 04:40:47;;;;;;;45.40;26.95;;;;;;;;;;5022756;28;20431;-83
2022/03/01 04:43:13;;;;;;;45.28;25.75;;;;;;;;;;5023356;28;20432;-82
2022/03/01 04:45:39;;;;;;;42.83;25.38;;;;;;;;;;5024515;28;20423;-83
2022/03/01 04:48:06;;;;;;;43.15;25.67;;;;;;;;;;5025550;28;20422;-83
2022/03/01 04:50:32;;;;;;;44.60;25.65;;;;;;;;;;5024526;28;20936;-83
2022/03/01 04:52:58;;;;;;;40.33;25.30;;;;;;;;;;5025810;28;20824;-83
2022/03/01 04:55:27;;;;;;;42.47;24.42;;;;;;;;;;5022518;28;20427;-83
2022/03/01 04:57:53;;;;;;;41.45;23.50;;;;;;;;;;5024784;28;20481;-83
2022/03/01 05:00:21;;;;;;;45.10;24.10;;;;;;;;;;5030318;28;20429;-83
2022/03/01 05:02:47;;;;;;;37.97;23.45;;;;;;;;;;5031964;28;20445;-83
2022/03/01 05:05:14;;;;;;;45.97;22.85;;;;;;;;;;5031269;28;20423;-83
2022/03/01 05:07:40;;;;;;;39.53;22.80;;;;;;;;;;5032834;28;20451;-83
2022/03/01 05:10:07;;;;;;;41.00;24.63;;;;;;;;;;5027645;28;20420;-83
2022/03/01 05:12:40;;;;;;;39.65;23.70;;;;;;;;;;5029872;28;20417;-83
2022/03/01 05:15:07;;;;;;;35.83;22.95;;;;;;;;;;5031536;28;20425;-83
2022/03/01 05:17:33;;;;;;;39.50;22.35;;;;;;;;;;5032425;28;20411;-83
2022/03/01 05:20:01;;;;;;;35.58;22.85;;;;;;;;;;5029148;28;20943;-84
2022/03/01 05:22:27;;;;;;;39.58;22.83;;;;;;;;;;5033013;28;20415;-83
2022/03/01 05:24:53;;;;;;;37.55;22.33;;;;;;;;;;5029596;28;20424;-83
2022/03/01 05:27:19;;;;;;;36.85;21.88;;;;;;;;;;5035260;28;20552;-83
2022/03/01 05:29:47;;;;;;;35.83;22.13;;;;;;;;;;5029209;28;20460;-83
2022/03/01 05:32:13;;;;;;;33.20;22.33;;;;;;;;;;5027494;28;20431;-83
2022/03/01 05:34:40;;;;;;;40.50;23.63;;;;;;;;;;5030270;28;20438;-82
2022/03/01 05:37:06;;;;;;;37.00;22.80;;;;;;;;;;5033161;28;20463;-83
2022/03/01 05:39:32;;;;;;;40.67;23.40;;;;;;;;;;5025374;28;20454;-84
2022/03/01 05:41:58;;;;;;;37.35;22.58;;;;;;;;;;5024616;28;20438;-84
2022/03/01 05:44:25;;;;;;;35.80;21.45;;;;;;;;;;5026213;28;20494;-83
2022/03/01 05:46:52;;;;;;;38.38;22.73;;;;;;;;;;5027166;28;20929;-84
2022/03/01 05:49:19;;;;;;;35.28;22.30;;;;;;;;;;5027113;28;21010;-83
2022/03/01 05:51:45;;;;;;;39.00;23.08;;;;;;;;;;5027809;28;20972;-84
2022/03/01 05:54:11;;;;;;;37.03;21.98;;;;;;;;;;5025939;28;20442;-84
2022/03/01 05:56:38;;;;;;;36.47;20.80;;;;;;;;;;5026671;28;21160;-83
2022/03/01 05:59:04;;;;;;;36.88;21.85;;;;;;;;;;5027030;28;20948;-84
2022/03/01 06:01:30;;;;;;;37.40;22.67;;;;;;;;;;5030143;28;20450;-83
2022/03/01 06:03:58;;;;;;;37.15;21.50;;;;;;;;;;5028166;28;20446;-84
2022/03/01 06:06:24;;;;;;;34.28;21.90;;;;;;;;;;5029214;28;20423;-84
2022/03/01 06:08:50;;;;;;;37.75;22.92;;;;;;;;;;5028332;28;20439;-83
2022/03/01 06:11:16;;;;;;;38.37;22.50;;;;;;;;;;5022080;28;20482;-84
2022/03/01 06:13:43;;;;;;;36.40;21.52;;;;;;;;;;5025276;28;20415;-84
2022/03/01 06:16:09;;;;;;;41.50;22.58;;;;;;;;;;5066234;23;20417;-79
2022/03/01 06:18:36;;;;;;;36.03;22.23;;;;;;;;;;5061529;28;20438;-79
2022/03/01 06:21:04;;;;;;;36.67;22.50;;;;;;;;;;5060712;28;20917;-81
2022/03/01 06:23:31;;;;;;;38.10;23.15;;;;;;;;;;5064075;28;20440;-80
2022/03/01 06:25:58;;;;;;;38.40;21.30;;;;;;;;;;5062485;28;20791;-80
2022/03/01 06:28:24;;;;;;;34.23;22.07;;;;;;;;;;5061425;28;20502;-80
2022/03/01 06:30:50;;;;;;;38.03;22.98;;;;;;;;;;5063165;28;20423;-80
2022/03/01 06:33:18;;;;;;;36.80;21.70;;;;;;;;;;5065723;28;20437;-80
2022/03/01 06:35:44;;;;;;;33.80;20.45;;;;;;;;;;5065868;28;20452;-79
2022/03/01 06:38:12;;;;;;;35.38;20.27;;;;;;;;;;5062491;28;20440;-80
2022/03/01 06:40:38;;;;;;;34.92;21.38;;;;;;;;;;5063466;28;20431;-79
2022/03/01 06:43:04;;;;;;;33.67;21.55;;;;;;;;;;5061240;28;20429;-81
2022/03/01 06:45:32;;;;;;;35.08;22.40;;;;;;;;;;5061269;28;20410;-80
2022/03/01 06:47:59;;;;;;;34.50;21.65;;;;;;;;;;5066140;28;20433;-80
2022/03/01 06:50:26;;;;;;;34.13;20.52;;;;;;;;;;5062733;28;20423;-80
2022/03/01 06:52:52;;;;;;;34.65;21.15;;;;;;;;;;5065425;28;20913;-80
2022/03/01 06:55:21;;;;;;;33.13;20.70;;;;;;;;;;5066412;28;20436;-81
2022/03/01 06:57:48;;;;;;;35.63;21.17;;;;;;;;;;5064136;28;20425;-80
2022/03/01 07:00:15;;;;;;;37.53;20.85;;;;;;;;;;5063099;28;20421;-80
2022/03/01 07:02:41;;;;;;;34.03;20.85;;;;;;;;;;5064967;28;20425;-81
2022/03/01 07:05:09;;;;;;;36.05;20.65;;;;;;;;;;5062221;28;20428;-80
2022/03/01 07:07:35;;;;;;;39.10;20.47;;;;;;;;;;5066047;28;20538;-79
2022/03/01 07:10:02;;;;;;;34.72;20.17;;;;;;;;;;5063084;28;20427;-80
2022/03/01 07:12:30;;;;;;;33.58;20.20;;;;;;;;;;5069280;28;20436;-81
2022/03/01 07:14:56;;;;;;;34.78;20.15;;;;;;;;;;5061890;28;20425;-80
2022/03/01 07:17:22;;;;;;;34.13;20.55;;;;;;;;;;5065658;28;20440;-79
2022/03/01 07:19:49;;;;;;;34.17;20.52;;;;;;;;;;5060612;28;20425;-80
2022/03/01 07:22:16;;;;;;;31.87;20.67;;;;;;;;;;5060898;28;21018;-80
2022/03/01 07:24:42;;;;;;;34.78;21.05;;;;;;;;;;5058957;28;20420;-78
2022/03/01 07:27:08;;;;;;;32.80;20.17;;;;;;;;;;5055898;28;20430;-80
2022/03/01 07:29:36;;;;;;;34.07;21.80;;;;;;;;;;5060363;28;20428;-81
2022/03/01 07:32:04;;;;;;;30.15;19.60;;;;;;;;;;5057358;28;20446;-80
2022/03/01 07:34:31;;;;;;;32.43;19.97;;;;;;;;;;5059089;28;20492;-80
2022/03/01 07:36:57;;;;;;;34.88;20.45;;;;;;;;;;5058019;28;20506;-80
2022/03/01 07:39:24;;;;;;;35.22;20.75;;;;;;;;;;5057040;28;20438;-80
2022/03/01 07:41:50;;;;;;;33.80;20.50;;;;;;;;;;5059942;28;20432;-81
2022/03/01 07:44:16;;;;;;;32.78;21.30;;;;;;;;;;5057469;28;20454;-80
2022/03/01 07:46:44;;;;;;;35.03;20.75;;;;;;;;;;5056923;28;20502;-79
2022/03/01 07:49:11;;;;;;;38.07;19.93;;;;;;;;;;5059618;28;20519;-80
2022/03/01 07:51:37;;;;;;;34.35;20.90;;;;;;;;;;5058110;28;20421;-80
2022/03/01 07:54:03;;;;;;;36.50;20.63;;;;;;;;;;5060934;28;20431;-80
2022/03/01 07:56:30;;;;;;;38.60;21.27;;;;;;;;;;5058425;28;20428;-81
2022/03/01 07:58:56;;;;;;;35.50;20.60;;;;;;;;;;5060802;28;20439;-81
2022/03/01 08:01:22;;;;;;;33.75;20.92;;;;;;;;;;5059094;28;21737;-79
2022/03/01 08:03:50;;;;;;;31.75;20.17;;;;;;;;;;5057577;28;20439;-81
2022/03/01 08:06:17;;;;;;;34.95;20.52;;;;;;;;;;5056791;28;20697;-82
2022/03/01 08:08:43;;;;;;;35.85;21.60;;;;;;;;;;5063173;28;20424;-81
2022/03/01 08:11:10;;;;;;;29.45;19.30;;;;;;;;;;5060361;28;20427;-81
2022/03/01 08:13:36;;;;;;;31.58;19.88;;;;;;;;;;5061432;28;20444;-82
2022/03/01 08:16:03;;;;;;;32.53;20.80;;;;;;;;;;5026636;28;1014667;-81
2022/03/01 08:18:29;;;;;;;32.15;21.33;;;;;;;;;;5056491;28;20448;-83
2022/03/01 08:20:57;;;;;;;31.67;20.33;;;;;;;;;;5062059;28;20425;-83
2022/03/01 08:23:24;;;;;;;36.67;20.88;;;;;;;;;;5064211;28;21086;-80
2022/03/01 08:25:50;;;;;;;29.80;19.45;;;;;;;;;;5060392;28;20421;-82
2022/03/01 08:28:16;;;;;;;33.10;19.90;;;;;;;;;;5063593;28;20438;-81
2022/03/01 08:30:43;;;;;;;32.45;20.23;;;;;;;;;;5058731;28;20486;-80
2022/03/01 08:33:09;;;;;;;33.05;20.45;;;;;;;;;;5059654;28;20443;-83
2022/03/01 08:35:36;;;;;;;32.60;21.10;;;;;;;;;;5060961;28;20428;-81
2022/03/01 08:38:04;;;;;;;32.40;20.27;;;;;;;;;;5062508;28;20435;-81
2022/03/01 08:40:32;;;;;;;34.50;19.92;;;;;;;;;;5057282;28;20979;-80
2022/03/01 08:42:58;;;;;;;30.90;20.10;;;;;;;;;;5061027;28;20472;-81
2022/03/01 08:45:24;;;;;;;32.13;19.90;;;;;;;;;;5056848;28;20940;-80
2022/03/01 08:47:51;;;;;;;31.20;20.10;;;;;;;;;;5060503;28;20429;-81
2022/03/01 08:50:17;;;;;;;32.33;21.23;;;;;;;;;;5059556;28;20425;-80
2022/03/01 08:52:44;;;;;;;29.95;20.15;;;;;;;;;;5059209;28;20428;-81
2022/03/01 08:55:12;;;;;;;33.70;20.03;;;;;;;;;;5057357;28;20967;-81
2022/03/01 08:57:39;;;;;;;31.38;19.63;;;;;;;;;;5061983;28;20460;-81
2022/03/01 09:00:07;;;;;;;29.20;18.70;;;;;;;;;;5057828;28;20432;-81
2022/03/01 09:02:33;;;;;;;30.83;19.80;;;;;;;;;;5059362;28;20478;-80
2022/03/01 09:05:00;;;;;;;33.63;20.95;;;;;;;;;;5056570;28;20951;-81
2022/03/01 09:07:26;;;;;;;33.75;21.27;;;;;;;;;;5063213;28;20908;-81
2022/03/01 09:09:52;;;;;;;30.90;20.40;;;;;;;;;;5057979;28;20505;-81
2022/03/01 09:12:20;;;;;;;27.45;18.50;;;;;;;;;;5061896;28;20425;-80
2022/03/01 09:14:46;;;;;;;31.83;21.00;;;;;;;;;;5060384;28;20444;-80
2022/03/01 09:17:13;;;;;;;33.90;21.00;;;;;;;;;;5064219;28;20440;-81
2022/03/01 09:19:39;;;;;;;30.55;19.88;;;;;;;;;;5061029;28;20822;-82
2022/03/01 09:22:05;;;;;;;29.67;19.05;;;;;;;;;;5064684;28;20419;-80
2022/03/01 09:24:31;;;;;;;33.25;20.10;;;;;;;;;;5062350;28;20483;-81
2022/03/01 09:27:01;;;;;;;34.45;20.55;;;;;;;;;;5063428;28;20425;-81
2022/03/01 09:29:28;;;;;;;30.00;20.40;;;;;;;;;;5062225;28;20521;-81
2022/03/01 09:31:55;;;;;;;29.27;20.05;;;;;;;;;;5064042;28;20425;-82
2022/03/01 09:34:21;;;;;;;31.43;21.00;;;;;;;;;;5063265;28;20481;-81
2022/03/01 09:36:47;;;;;;;31.70;20.73;;;;;;;;;;5061813;28;20434;-81
2022/03/01 09:39:14;;;;;;;33.45;22.52;;;;;;;;;;5063277;28;20430;-81
2022/03/01 09:41:40;;;;;;;33.13;20.73;;;;;;;;;;5061021;28;20434;-83
2022/03/01 09:44:07;;;;;;;31.23;21.73;;;;;;;;;;5063159;28;20459;-81
2022/03/01 09:46:34;;;;;;;30.75;21.38;;;;;;;;;;5059128;28;20421;-81
2022/03/01 09:49:01;;;;;;;30.40;20.08;;;;;;;;;;5062734;28;20417;-82
2022/03/01 09:51:27;;;;;;;29.60;19.70;;;;;;;;;;5062223;28;20504;-82
2022/03/01 09:53:54;;;;;;;29.58;18.92;;;;;;;;;;5066246;28;20417;-81
2022/03/01 09:56:21;;;;;;;32.15;19.85;;;;;;;;;;5068122;28;20431;-81
2022/03/01 09:58:47;;;;;;;32.15;20.90;;;;;;;;;;5066362;28;20425;-81
2022/03/01 10:01:15;;;;;;;33.67;19.97;;;;;;;;;;5063123;28;20428;-81
2022/03/01 10:03:48;;;;;;;31.65;20.25;;;;;;;;;;5063359;28;20425;-81
2022/03/01 10:06:14;;;;;;;27.20;19.08;;;;;;;;;;5062621;28;20528;-81
2022/03/01 10:08:41;;;;;;;33.05;20.05;;;;;;;;;;5063022;28;20924;-81
2022/03/01 10:11:07;;;;;;;31.25;19.63;;;;;;;;;;5065538;28;20421;-80
2022/03/01 10:13:34;;;;;;;30.63;19.30;;;;;;;;;;5062157;28;20444;-79
2022/03/01 10:16:05;;;;;;;30.88;20.33;;;;;;;;;;5065128;28;20455;-82
2022/03/01 10:18:31;;;;;;;28.88;19.35;;;;;;;;;;5063996;28;20429;-81
2022/03/01 10:21:02;;;;;;;30.85;20.05;;;;;;;;;;5061928;28;20429;-82
2022/03/01 10:23:29;;;;;;;26.60;19.27;;;;;;;;;;5063187;28;20979;-81
2022/03/01 10:25:55;;;;;;;28.88;19.35;;;;;;;;;;5063390;28;20429;-81
2022/03/01 10:28:31;;;;;;;27.60;20.00;;;;;;;;;;5061304;28;20517;-82
2022/03/01 10:30:57;;;;;;;26.23;18.90;;;;;;;;;;5062784;28;20441;-81
2022/03/01 10:33:24;;;;;;;28.10;19.65;;;;;;;;;;5065006;28;20429;-81
2022/03/01 10:35:58;;;;;;;30.33;19.67;;;;;;;;;;5061965;28;20431;-81
2022/03/01 10:38:26;;;;;;;28.95;19.30;;;;;;;;;;5063395;28;20473;-81
2022/03/01 10:40:57;;;;;;;29.50;18.92;;;;;;;;;;5065395;28;20419;-81
2022/03/01 10:43:25;;;;;;;27.20;19.40;;;;;;;;;;5064471;28;20432;-81
2022/03/01 10:45:52;;;;;;;26.58;18.73;;;;;;;;;;5067848;28;20446;-82
2022/03/01 10:48:23;;;;;;;29.53;18.50;;;;;;;;;;5066355;28;20924;-81
2022/03/01 10:50:57;;;;;;;26.95;18.30;;;;;;;;;;5065841;28;20412;-82
2022/03/01 10:53:29;;;;;;;27.52;19.15;;;;;;;;;;5066304;28;20963;-82
2022/03/01 10:56:00;;;;;;;27.25;19.05;;;;;;;;;;5063849;28;20440;-82
2022/03/01 10:58:26;;;;;;;27.00;18.15;;;;;;;;;;5061254;28;20437;-81
2022/03/01 11:00:52;;;;;;;24.92;17.63;;;;;;;;;;5064460;28;20420;-81
2022/03/01 11:03:19;;;;;;;29.20;19.67;;;;;;;;;;5062915;28;20808;-82
2022/03/01 11:05:45;;;;;;;26.45;18.00;;;;;;;;;;5067913;28;20422;-81
2022/03/01 11:08:13;;;;;;;24.30;18.60;;;;;;;;;;5064715;28;20444;-81
2022/03/01 11:10:41;;;;;;;24.23;18.75;;;;;;;;;;5067643;28;20425;-81
2022/03/01 11:13:08;;;;;;;28.05;18.80;;;;;;;;;;5064258;28;20417;-82
2022/03/01 11:15:38;;;;;;;27.23;18.65;;;;;;;;;;5069480;28;20930;-81
2022/03/01 11:18:12;;;;;;;24.45;17.60;;;;;;;;;;5067013;28;20504;-81
2022/03/01 11:20:42;;;;;;;24.50;17.77;;;;;;;;;;5067103;28;20418;-81
2022/03/01 11:23:10;;;;;;;27.73;18.98;;;;;;;;;;5066082;28;20424;-80
2022/03/01 11:25:37;;;;;;;26.48;18.98;;;;;;;;;;5065609;28;20425;-81
2022/03/01 11:28:07;;;;;;;25.73;18.33;;;;;;;;;;5066197;28;20503;-79
2022/03/01 11:30:34;;;;;;;25.98;18.40;;;;;;;;;;5069031;28;20423;-81
2022/03/01 11:33:01;;;;;;;27.73;18.55;;;;;;;;;;5067743;28;20415;-80
2022/03/01 11:35:29;;;;;;;24.83;17.53;;;;;;;;;;5067088;28;20780;-80
2022/03/01 11:37:59;;;;;;;23.35;17.48;;;;;;;;;;5064458;28;20417;-80
2022/03/01 11:40:25;;;;;;;22.63;17.33;;;;;;;;;;5063888;28;20808;-81
2022/03/01 11:42:53;;;;;;;24.73;17.57;;;;;;;;;;5066571;28;20407;-80
2022/03/01 11:45:21;;;;;;;24.90;17.80;;;;;;;;;;5065506;28;21126;-80
2022/03/01 11:47:47;;;;;;;27.23;17.40;;;;;;;;;;5068356;28;20408;-81
2022/03/01 11:50:14;;;;;;;25.60;18.20;;;;;;;;;;5068287;28;20483;-80
2022/03/01 11:52:49;;;;;;;25.70;18.45;;;;;;;;;;5066855;28;20427;-81
2022/03/01 11:55:16;;;;;;;26.73;18.48;;;;;;;;;;5066219;28;20437;-80
2022/03/01 11:57:43;;;;;;;26.33;17.92;;;;;;;;;;5060988;28;20425;-81
2022/03/01 12:00:14;;;;;;;25.95;16.98;;;;;;;;;;5065764;28;20934;-82
2022/03/01 12:02:44;;;;;;;26.25;18.30;;;;;;;;;;5067989;28;20415;-80
2022/03/01 12:05:19;;;;;;;25.02;18.10;;;;;;;;;;5068914;28;20417;-81
2022/03/01 12:07:45;;;;;;;24.77;18.23;;;;;;;;;;5061784;28;20447;-83
2022/03/01 12:10:19;;;;;;;26.15;17.10;;;;;;;;;;5066757;28;20461;-81
2022/03/01 12:12:47;;;;;;;24.45;18.00;;;;;;;;;;5058727;28;20455;-81
2022/03/01 12:15:16;;;;;;;23.27;17.52;;;;;;;;;;5067090;23;20455;-84
2022/03/01 12:17:45;;;;;;;27.47;18.60;;;;;;;;;;5017243;28;20554;-79
2022/03/01 12:20:12;;;;;;;25.47;18.33;;;;;;;;;;5019387;28;20944;-81
2022/03/01 12:22:49;;;;;;;26.63;18.48;;;;;;;;;;5019615;28;20419;-81
2022/03/01 12:25:16;;;;;;;24.23;18.05;;;;;;;;;;5018584;28;20454;-84
2022/03/01 12:27:43;;;;;;;27.98;18.65;;;;;;;;;;5019849;28;20857;-80
2022/03/01 12:30:10;;;;;;;29.48;19.10;;;;;;;;;;5016645;28;20451;-83
2022/03/01 12:32:37;;;;;;;27.02;19.00;;;;;;;;;;5019128;28;20431;-82
2022/03/01 12:35:05;;;;;;;25.88;19.00;;;;;;;;;;5019101;28;20443;-81
2022/03/01 12:37:32;;;;;;;23.70;17.75;;;;;;;;;;5017221;28;20999;-82
2022/03/01 12:39:58;;;;;;;27.07;19.30;;;;;;;;;;5018732;28;20930;-82
2022/03/01 12:42:27;;;;;;;26.00;18.38;;;;;;;;;;5017623;28;20432;-83
2022/03/01 12:44:54;;;;;;;30.48;19.90;;;;;;;;;;5018195;28;20433;-84
2022/03/01 12:47:20;;;;;;;25.58;18.35;;;;;;;;;;5016921;28;20428;-81
2022/03/01 12:49:46;;;;;;;28.52;19.65;;;;;;;;;;5019858;28;20416;-83
2022/03/01 12:52:19;;;;;;;24.27;18.65;;;;;;;;;;5024557;28;20419;-84
2022/03/01 12:54:47;;;;;;;28.23;19.30;;;;;;;;;;5026494;28;20840;-85
2022/03/01 12:57:14;;;;;;;25.27;18.25;;;;;;;;;;5018515;28;20413;-83
2022/03/01 12:59:40;;;;;;;24.38;18.38;;;;;;;;;;5016860;28;20448;-83
2022/03/01 13:02:07;;;;;;;24.90;18.15;;;;;;;;;;5018615;28;20427;-82
2022/03/01 13:04:34;;;;;;;23.65;18.13;;;;;;;;;;5016871;28;20440;-83
2022/03/01 13:07:01;;;;;;;24.43;19.20;;;;;;;;;;5016192;28;20992;-83
2022/03/01 13:09:29;;;;;;;26.73;18.88;;;;;;;;;;5020188;28;20815;-83
2022/03/01 13:11:56;;;;;;;23.50;17.75;;;;;;;;;;5016810;28;20437;-82
2022/03/01 13:14:22;;;;;;;26.80;19.25;;;;;;;;;;5018442;28;20581;-82
2022/03/01 13:16:49;;;;;;;25.75;18.05;;;;;;;;;;5016742;28;20412;-83
2022/03/01 13:19:17;;;;;;;26.05;19.67;;;;;;;;;;5018193;28;20439;-82
2022/03/01 13:21:44;;;;;;;25.85;18.92;;;;;;;;;;5019840;28;20910;-82
2022/03/01 13:24:12;;;;;;;25.95;18.40;;;;;;;;;;5022877;28;20434;-82
2022/03/01 13:26:40;;;;;;;25.33;18.70;;;;;;;;;;5022268;28;20792;-82
2022/03/01 13:29:07;;;;;;;29.42;18.38;;;;;;;;;;5020669;28;20427;-81
2022/03/01 13:31:34;;;;;;;28.60;19.30;;;;;;;;;;5021020;28;20869;-82
2022/03/01 13:34:00;;;;;;;26.35;19.70;;;;;;;;;;5022947;28;20433;-83
2022/03/01 13:36:28;;;;;;;25.35;18.90;;;;;;;;;;5020040;28;20427;-82
2022/03/01 13:38:58;;;;;;;24.65;18.38;;;;;;;;;;5020367;28;20439;-83
2022/03/01 13:41:25;;;;;;;23.10;18.08;;;;;;;;;;5021373;28;20458;-83
2022/03/01 13:43:53;;;;;;;24.50;18.10;;;;;;;;;;5021247;28;20519;-82
2022/03/01 13:46:19;;;;;;;25.67;19.30;;;;;;;;;;5021179;28;20470;-83
2022/03/01 13:48:45;;;;;;;25.27;19.13;;;;;;;;;;5020535;28;20420;-83
2022/03/01 13:51:11;;;;;;;25.90;18.50;;;;;;;;;;5022111;28;20424;-82
2022/03/01 13:53:38;;;;;;;29.38;19.33;;;;;;;;;;5022077;28;20500;-82
2022/03/01 13:56:05;;;;;;;26.30;19.40;;;;;;;;;;5021374;28;20431;-83
2022/03/01 13:58:32;;;;;;;24.27;18.67;;;;;;;;;;5019763;28;20539;-84
2022/03/01 14:01:03;;;;;;;27.15;19.73;;;;;;;;;;5019987;28;20660;-81
2022/03/01 14:03:31;;;;;;;29.23;20.05;;;;;;;;;;5019708;28;20415;-85
2022/03/01 14:05:58;;;;;;;27.33;19.42;;;;;;;;;;5020643;28;20482;-84
2022/03/01 14:08:25;;;;;;;25.92;18.70;;;;;;;;;;5021597;28;20452;-85
2022/03/01 14:10:53;;;;;;;28.75;19.38;;;;;;;;;;5020801;28;20428;-83
2022/03/01 14:13:20;;;;;;;25.00;18.90;;;;;;;;;;5020103;28;20494;-82
2022/03/01 14:15:50;;;;;;;26.23;19.20;;;;;;;;;;5021233;28;20796;-83